NCAR-RAP Real-Time Weather Data

Output produced by METARs form (30 October 2014  16:36 UTC)
found at http://weather.rap.ucar.edu/surface/
 
Conditions at: KLOU observed 30 October 2014  15:53 UTC
Temperature: 10.0°C (50°F)
Dewpoint: 1.7°C (35°F) [RH = 56%]
Pressure (altimeter): 30.17 inches Hg (1021.8 mb)
[Sea-level pressure: 1021.8 mb]
Winds: variable direction winds at 3 MPH (3 knots; 1.6 m/s)
Visibility: 10 or more miles (16+ km)
Ceiling: at least 12,000 feet AGL
Clouds: sky clear below 12,000 feet AGL
Present Weather: no significant weather observed at this time
KLOU 301553Z VRB03KT 10SM CLR 10/02 A3017 RMK AO2 SLP218 T01000017